Time;durP1;ratioP1;P1;durP2;ratioP2;P2;SDS_P1;SDS_P2;PMS_P1;PMS_P2;Temp;Humidity;BMP_temperature;BMP_pressure;BME280_temperature;BME280_humidity;BME280_pressure;Samples;Min_cycle;Max_cycle;Signal;HPM_P1;HPM_P2
2023/05/03 00:00:12;;;;;;;2.17;1.27;;;;;;;;;;5058548;28;20131;-64
2023/05/03 00:02:43;;;;;;;5.60;2.55;;;;;;;;;;5058863;28;20063;-64
2023/05/03 00:05:13;;;;;;;5.13;2.17;;;;;;;;;;5058127;28;20044;-65
2023/05/03 00:07:44;;;;;;;3.30;1.55;;;;;;;;;;5060002;28;20052;-65
2023/05/03 00:10:14;;;;;;;11.52;2.97;;;;;;;;;;5058492;28;20523;-64
2023/05/03 00:12:44;;;;;;;2.97;1.52;;;;;;;;;;5060463;28;20493;-63
2023/05/03 00:15:12;;;;;;;1.92;1.27;;;;;;;;;;5056811;28;20412;-64
2023/05/03 00:17:40;;;;;;;4.55;2.15;;;;;;;;;;5063300;28;20067;-65
2023/05/03 00:20:10;;;;;;;6.45;1.77;;;;;;;;;;5060642;28;20053;-65
2023/05/03 00:22:39;;;;;;;2.47;1.33;;;;;;;;;;5059525;28;20052;-64
2023/05/03 00:25:09;;;;;;;4.35;0.90;;;;;;;;;;5060727;28;20135;-64
2023/05/03 00:27:38;;;;;;;3.72;1.50;;;;;;;;;;5059205;28;20071;-64
2023/05/03 00:30:07;;;;;;;4.00;1.75;;;;;;;;;;5059529;28;20044;-63
2023/05/03 00:32:35;;;;;;;2.90;1.92;;;;;;;;;;5061323;28;20053;-65
2023/05/03 00:35:04;;;;;;;5.40;1.80;;;;;;;;;;5063315;28;20052;-64
2023/05/03 00:37:32;;;;;;;3.53;1.00;;;;;;;;;;5065182;28;20515;-65
2023/05/03 00:40:00;;;;;;;3.47;1.90;;;;;;;;;;5065815;28;20056;-63
2023/05/03 00:42:30;;;;;;;2.45;1.20;;;;;;;;;;5062458;28;20033;-64
2023/05/03 00:44:59;;;;;;;3.72;1.95;;;;;;;;;;5060823;28;20045;-65
2023/05/03 00:47:27;;;;;;;3.38;1.48;;;;;;;;;;5060966;28;20044;-64
2023/05/03 00:49:55;;;;;;;2.88;1.50;;;;;;;;;;5063771;28;20064;-64
2023/05/03 00:52:24;;;;;;;2.85;1.70;;;;;;;;;;5066433;28;20063;-64
2023/05/03 00:54:52;;;;;;;4.55;1.67;;;;;;;;;;5063399;28;20487;-65
2023/05/03 00:57:21;;;;;;;2.83;1.60;;;;;;;;;;5061033;28;20040;-65
2023/05/03 00:59:53;;;;;;;7.78;2.22;;;;;;;;;;5063020;28;20055;-64
2023/05/03 01:02:21;;;;;;;2.85;1.13;;;;;;;;;;5059415;28;20052;-64
2023/05/03 01:04:50;;;;;;;2.97;1.42;;;;;;;;;;5066722;23;20053;-64
2023/05/03 01:07:24;;;;;;;3.95;2.28;;;;;;;;;;5055799;28;20143;-63
2023/05/03 01:09:56;;;;;;;2.45;1.70;;;;;;;;;;5055873;28;20053;-66
2023/05/03 01:12:31;;;;;;;2.80;1.67;;;;;;;;;;5055624;28;20155;-64
2023/05/03 01:15:07;;;;;;;2.92;1.08;;;;;;;;;;5055360;28;20060;-64
2023/05/03 01:17:39;;;;;;;3.13;1.75;;;;;;;;;;5055562;28;20060;-63
2023/05/03 01:20:10;;;;;;;4.63;1.70;;;;;;;;;;5055551;28;20045;-63
2023/05/03 01:22:43;;;;;;;4.20;1.15;;;;;;;;;;5055667;28;20135;-64
2023/05/03 01:25:14;;;;;;;2.90;1.25;;;;;;;;;;5054977;28;20123;-65
2023/05/03 01:27:43;;;;;;;3.95;1.25;;;;;;;;;;5055152;28;20053;-64
2023/05/03 01:33:11;;;;;;;5.57;2.10;;;;;;;;;;5283955;22;20059;-63
2023/05/03 01:35:41;;;;;;;1.80;1.58;;;;;;;;;;5041512;28;20063;-64
2023/05/03 01:38:10;;;;;;;2.30;1.15;;;;;;;;;;5046174;28;20682;-62
2023/05/03 01:40:42;;;;;;;1.33;0.80;;;;;;;;;;5045855;28;20065;-62
2023/05/03 01:43:11;;;;;;;5.40;1.83;;;;;;;;;;5041185;28;20601;-62
2023/05/03 01:45:40;;;;;;;5.57;1.92;;;;;;;;;;5040056;28;20551;-65
2023/05/03 01:48:11;;;;;;;4.72;1.52;;;;;;;;;;5042491;28;20047;-63
2023/05/03 01:50:40;;;;;;;3.58;1.50;;;;;;;;;;5041457;28;20073;-62
2023/05/03 01:53:08;;;;;;;2.35;1.50;;;;;;;;;;5043792;28;20454;-62
2023/05/03 01:55:36;;;;;;;3.20;1.58;;;;;;;;;;5043846;28;20132;-62
2023/05/03 01:58:06;;;;;;;4.88;1.38;;;;;;;;;;5041665;28;20421;-63
2023/05/03 02:00:37;;;;;;;2.97;1.55;;;;;;;;;;5041891;28;20049;-66
2023/05/03 02:03:05;;;;;;;2.15;1.23;;;;;;;;;;5041659;28;20424;-62
2023/05/03 02:05:33;;;;;;;2.03;1.15;;;;;;;;;;5042985;28;20045;-61
2023/05/03 02:08:02;;;;;;;2.67;1.15;;;;;;;;;;5041787;28;20566;-62
2023/05/03 02:10:30;;;;;;;5.47;2.03;;;;;;;;;;5043788;28;20045;-62
2023/05/03 02:12:59;;;;;;;6.38;2.10;;;;;;;;;;5044565;28;20047;-62
2023/05/03 02:15:29;;;;;;;2.75;1.20;;;;;;;;;;5043645;28;20049;-64
2023/05/03 02:18:00;;;;;;;4.60;1.55;;;;;;;;;;5040668;28;20076;-62
2023/05/03 02:20:34;;;;;;;2.92;1.40;;;;;;;;;;5044881;28;20490;-63
2023/05/03 02:23:02;;;;;;;3.67;1.63;;;;;;;;;;5044534;28;20049;-62
2023/05/03 02:25:31;;;;;;;2.42;1.08;;;;;;;;;;5043612;28;20047;-64
2023/05/03 02:28:00;;;;;;;3.78;1.75;;;;;;;;;;5042036;28;20453;-61
2023/05/03 02:30:29;;;;;;;4.18;1.67;;;;;;;;;;5041876;28;20049;-63
2023/05/03 02:32:58;;;;;;;3.05;1.23;;;;;;;;;;5039871;28;20088;-63
2023/05/03 02:35:26;;;;;;;4.75;1.90;;;;;;;;;;5041487;28;20393;-61
2023/05/03 02:37:55;;;;;;;2.30;0.88;;;;;;;;;;5040170;28;20501;-65
2023/05/03 02:40:24;;;;;;;4.03;1.80;;;;;;;;;;5044476;28;20080;-62
2023/05/03 02:42:52;;;;;;;1.65;1.23;;;;;;;;;;5043675;28;20048;-62
2023/05/03 02:45:21;;;;;;;3.22;1.92;;;;;;;;;;5043640;28;20663;-62
2023/05/03 02:47:50;;;;;;;3.00;1.67;;;;;;;;;;5042046;28;20049;-63
2023/05/03 02:50:19;;;;;;;1.98;1.48;;;;;;;;;;5042801;28;20497;-62
2023/05/03 02:52:47;;;;;;;3.90;1.98;;;;;;;;;;5042659;28;20057;-64
2023/05/03 02:55:15;;;;;;;5.90;1.42;;;;;;;;;;5043961;28;20053;-67
2023/05/03 02:57:44;;;;;;;3.88;0.88;;;;;;;;;;5039965;28;20056;-62
2023/05/03 03:00:14;;;;;;;3.50;1.58;;;;;;;;;;5040560;28;20053;-62
2023/05/03 03:02:42;;;;;;;3.83;1.73;;;;;;;;;;5037503;28;20120;-65
2023/05/03 03:05:12;;;;;;;2.75;1.77;;;;;;;;;;5041931;28;20052;-63
2023/05/03 03:07:41;;;;;;;2.05;0.85;;;;;;;;;;5043024;28;20135;-62
2023/05/03 03:10:09;;;;;;;2.75;1.13;;;;;;;;;;5044160;28;20405;-62
2023/05/03 03:12:38;;;;;;;4.05;1.42;;;;;;;;;;5042813;28;20135;-63
2023/05/03 03:15:07;;;;;;;2.03;1.42;;;;;;;;;;5042657;28;20150;-61
2023/05/03 03:17:38;;;;;;;3.80;1.10;;;;;;;;;;5040650;28;20569;-63
2023/05/03 03:20:10;;;;;;;3.15;1.00;;;;;;;;;;5040684;28;20048;-66
2023/05/03 03:22:40;;;;;;;2.95;1.90;;;;;;;;;;5043416;28;20429;-61
2023/05/03 03:25:09;;;;;;;3.15;1.45;;;;;;;;;;5041726;28;20053;-63
2023/05/03 03:27:37;;;;;;;1.65;1.05;;;;;;;;;;5042802;28;20064;-62
2023/05/03 03:30:08;;;;;;;4.70;1.25;;;;;;;;;;5040117;28;20049;-62
2023/05/03 03:32:36;;;;;;;1.60;1.23;;;;;;;;;;5042211;28;20065;-63
2023/05/03 03:35:05;;;;;;;1.42;1.08;;;;;;;;;;5041769;28;20053;-62
2023/05/03 03:37:33;;;;;;;2.60;1.33;;;;;;;;;;5042959;28;20049;-62
2023/05/03 03:40:03;;;;;;;1.48;0.93;;;;;;;;;;5040268;28;20411;-65
2023/05/03 03:42:32;;;;;;;2.45;1.75;;;;;;;;;;5041831;28;20142;-63
2023/05/03 03:45:00;;;;;;;1.17;0.98;;;;;;;;;;5041506;28;20048;-63
2023/05/03 03:47:28;;;;;;;2.70;1.05;;;;;;;;;;5039646;28;20082;-62
2023/05/03 03:49:57;;;;;;;1.98;0.95;;;;;;;;;;5042991;28;20118;-64
2023/05/03 03:52:25;;;;;;;1.55;1.08;;;;;;;;;;5044292;28;20052;-64
2023/05/03 03:54:53;;;;;;;4.57;1.27;;;;;;;;;;5042615;28;20076;-62
2023/05/03 03:57:24;;;;;;;1.88;1.17;;;;;;;;;;5041097;28;20037;-62
2023/05/03 03:59:53;;;;;;;2.67;1.35;;;;;;;;;;5040954;28;20052;-62
2023/05/03 04:02:21;;;;;;;2.10;0.95;;;;;;;;;;5036222;28;20072;-62
2023/05/03 04:04:49;;;;;;;2.67;1.30;;;;;;;;;;5041661;28;20238;-63
2023/05/03 04:07:18;;;;;;;3.17;1.42;;;;;;;;;;5040961;28;20497;-62
2023/05/03 04:09:46;;;;;;;1.48;1.38;;;;;;;;;;5048164;28;20049;-64
2023/05/03 04:12:14;;;;;;;1.15;0.77;;;;;;;;;;5046427;28;20044;-64
2023/05/03 04:14:45;;;;;;;3.42;1.55;;;;;;;;;;5046985;28;20045;-62
2023/05/03 04:17:14;;;;;;;5.95;2.08;;;;;;;;;;5044311;28;20041;-62
2023/05/03 04:19:42;;;;;;;3.35;1.42;;;;;;;;;;5047841;28;20067;-64
2023/05/03 04:22:10;;;;;;;2.10;1.00;;;;;;;;;;5045902;28;20498;-63
2023/05/03 04:24:39;;;;;;;2.53;1.23;;;;;;;;;;5046593;28;20055;-63
2023/05/03 04:27:08;;;;;;;1.60;1.05;;;;;;;;;;5041800;28;20065;-66
2023/05/03 04:29:37;;;;;;;1.67;0.88;;;;;;;;;;5044955;28;20132;-63
2023/05/03 04:32:08;;;;;;;6.35;1.73;;;;;;;;;;5038799;28;20506;-63
2023/05/03 04:34:37;;;;;;;3.25;1.95;;;;;;;;;;5039987;28;20184;-67
2023/05/03 04:37:07;;;;;;;5.43;1.75;;;;;;;;;;5045030;28;20514;-62
2023/05/03 04:39:36;;;;;;;4.97;1.75;;;;;;;;;;5045996;28;20501;-62
2023/05/03 04:42:04;;;;;;;2.30;1.70;;;;;;;;;;5042901;28;20103;-64
2023/05/03 04:44:33;;;;;;;4.32;2.08;;;;;;;;;;5044664;28;20495;-65
2023/05/03 04:47:02;;;;;;;5.57;1.83;;;;;;;;;;5044666;28;20048;-62
2023/05/03 04:49:31;;;;;;;2.50;1.50;;;;;;;;;;5045112;28;20080;-62
2023/05/03 04:52:00;;;;;;;2.88;1.70;;;;;;;;;;5043420;28;20048;-66
2023/05/03 04:54:28;;;;;;;1.70;1.10;;;;;;;;;;5041740;28;20491;-62
2023/05/03 04:56:56;;;;;;;3.15;1.20;;;;;;;;;;5042026;28;20063;-63
2023/05/03 04:59:25;;;;;;;2.55;1.23;;;;;;;;;;5046142;28;20064;-65
2023/05/03 05:01:53;;;;;;;6.70;1.50;;;;;;;;;;5040019;28;20051;-62
2023/05/03 05:04:21;;;;;;;4.50;1.80;;;;;;;;;;5044150;28;20052;-64
2023/05/03 05:06:52;;;;;;;2.78;1.67;;;;;;;;;;5040312;28;20049;-63
2023/05/03 05:09:22;;;;;;;2.40;1.52;;;;;;;;;;5043315;28;20053;-64
2023/05/03 05:11:50;;;;;;;5.47;1.48;;;;;;;;;;5042008;28;20057;-62
2023/05/03 05:14:19;;;;;;;4.13;1.90;;;;;;;;;;5039303;28;20037;-66
2023/05/03 05:16:47;;;;;;;5.53;1.85;;;;;;;;;;5043148;28;20520;-64
2023/05/03 05:19:15;;;;;;;4.38;1.75;;;;;;;;;;5043885;28;20045;-62
2023/05/03 05:21:44;;;;;;;2.95;1.48;;;;;;;;;;5044802;28;20051;-64
2023/05/03 05:24:13;;;;;;;3.10;1.40;;;;;;;;;;5040497;28;20547;-66
2023/05/03 05:26:42;;;;;;;4.38;1.80;;;;;;;;;;5042734;28;20508;-64
2023/05/03 05:29:11;;;;;;;17.58;3.28;;;;;;;;;;5043425;28;20052;-65
2023/05/03 05:31:40;;;;;;;3.85;2.03;;;;;;;;;;5042270;28;20071;-65
2023/05/03 05:34:08;;;;;;;3.55;1.33;;;;;;;;;;5040630;28;20156;-64
2023/05/03 05:36:37;;;;;;;9.82;3.28;;;;;;;;;;5045298;28;20041;-63
2023/05/03 05:39:05;;;;;;;8.38;3.20;;;;;;;;;;5042248;28;20125;-68
2023/05/03 05:41:35;;;;;;;4.30;1.65;;;;;;;;;;5045079;28;20072;-67
2023/05/03 05:44:03;;;;;;;10.23;2.22;;;;;;;;;;5043714;28;20099;-67
2023/05/03 05:46:32;;;;;;;6.28;2.28;;;;;;;;;;5043423;28;20246;-67
2023/05/03 05:49:00;;;;;;;7.07;3.13;;;;;;;;;;5047060;28;20057;-68
2023/05/03 05:51:29;;;;;;;6.78;2.35;;;;;;;;;;5043930;28;20139;-68
2023/05/03 05:53:57;;;;;;;3.33;2.10;;;;;;;;;;5044950;28;20104;-67
2023/05/03 05:56:26;;;;;;;10.35;2.50;;;;;;;;;;5043642;28;20056;-67
2023/05/03 05:58:56;;;;;;;8.07;2.65;;;;;;;;;;5045457;28;20083;-67
2023/05/03 06:01:25;;;;;;;2.15;1.73;;;;;;;;;;5042789;28;20102;-67
2023/05/03 06:03:55;;;;;;;6.18;1.90;;;;;;;;;;5043849;28;20052;-67
2023/05/03 06:06:23;;;;;;;4.53;2.15;;;;;;;;;;5044771;28;20043;-68
2023/05/03 06:08:52;;;;;;;6.07;2.40;;;;;;;;;;5041194;28;20090;-68
2023/05/03 06:11:20;;;;;;;7.30;2.35;;;;;;;;;;5042595;28;20135;-68
2023/05/03 06:13:48;;;;;;;7.93;2.13;;;;;;;;;;5043788;28;20048;-67
2023/05/03 06:16:18;;;;;;;1.90;1.33;;;;;;;;;;5042378;28;20051;-67
2023/05/03 06:18:47;;;;;;;9.82;1.83;;;;;;;;;;5043991;28;20383;-67
2023/05/03 06:21:15;;;;;;;3.28;1.33;;;;;;;;;;5044257;28;20414;-67
2023/05/03 06:23:43;;;;;;;7.88;2.00;;;;;;;;;;5044272;28;20049;-68
2023/05/03 06:26:12;;;;;;;3.10;1.75;;;;;;;;;;5041486;28;20041;-67
2023/05/03 06:28:40;;;;;;;3.17;1.42;;;;;;;;;;5042796;28;20049;-67
2023/05/03 06:31:09;;;;;;;6.15;1.73;;;;;;;;;;5044592;28;20081;-67
2023/05/03 06:33:38;;;;;;;4.85;1.73;;;;;;;;;;5042977;28;20053;-67
2023/05/03 06:36:08;;;;;;;5.28;1.55;;;;;;;;;;5039094;28;20164;-68
2023/05/03 06:38:36;;;;;;;7.53;1.95;;;;;;;;;;5040839;28;20045;-68
2023/05/03 06:41:05;;;;;;;5.60;2.22;;;;;;;;;;5042652;28;20055;-68
2023/05/03 06:43:33;;;;;;;4.35;1.63;;;;;;;;;;5041947;28;20045;-67
2023/05/03 06:46:02;;;;;;;7.13;1.85;;;;;;;;;;5039165;28;20102;-67
2023/05/03 06:48:30;;;;;;;8.45;1.85;;;;;;;;;;5038673;28;20410;-66
2023/05/03 06:51:00;;;;;;;4.88;1.52;;;;;;;;;;5042374;28;20126;-68
2023/05/03 06:53:28;;;;;;;8.52;2.25;;;;;;;;;;5041030;28;20135;-67
2023/05/03 06:55:57;;;;;;;4.53;1.45;;;;;;;;;;5042577;28;20186;-67
2023/05/03 06:58:25;;;;;;;5.75;2.22;;;;;;;;;;5038786;28;20046;-69
2023/05/03 07:00:53;;;;;;;8.98;2.28;;;;;;;;;;5036758;28;20478;-67
2023/05/03 07:03:22;;;;;;;7.70;2.35;;;;;;;;;;5035339;28;20052;-67
2023/05/03 07:05:51;;;;;;;5.88;2.17;;;;;;;;;;5039953;28;20063;-67
2023/05/03 07:08:20;;;;;;;5.40;2.17;;;;;;;;;;5040015;28;20140;-67
2023/05/03 07:10:49;;;;;;;5.47;1.73;;;;;;;;;;5037636;28;20051;-67
2023/05/03 07:13:17;;;;;;;7.68;3.47;;;;;;;;;;5040331;28;20163;-68
2023/05/03 07:15:45;;;;;;;6.07;2.30;;;;;;;;;;5039046;28;20256;-68
2023/05/03 07:18:14;;;;;;;7.68;1.48;;;;;;;;;;5040331;28;20055;-67
2023/05/03 07:20:42;;;;;;;5.65;1.70;;;;;;;;;;5042477;28;20049;-67
2023/05/03 07:23:11;;;;;;;9.68;2.40;;;;;;;;;;5038390;28;20051;-67
2023/05/03 07:25:40;;;;;;;7.82;1.88;;;;;;;;;;5041126;28;20220;-67
2023/05/03 07:28:09;;;;;;;14.73;3.13;;;;;;;;;;5040645;28;20059;-67
2023/05/03 07:30:37;;;;;;;6.40;2.53;;;;;;;;;;5040617;28;20049;-67
2023/05/03 07:33:06;;;;;;;11.13;2.58;;;;;;;;;;5039348;28;20057;-67
2023/05/03 07:35:34;;;;;;;4.93;2.15;;;;;;;;;;5038801;28;20076;-67
2023/05/03 07:38:02;;;;;;;4.18;1.75;;;;;;;;;;5038755;28;20244;-67
2023/05/03 07:40:32;;;;;;;15.68;3.17;;;;;;;;;;5042452;28;20811;-67
2023/05/03 07:43:02;;;;;;;8.40;2.40;;;;;;;;;;5037079;28;20502;-67
2023/05/03 07:45:30;;;;;;;6.03;2.58;;;;;;;;;;5038741;28;20061;-67
2023/05/03 07:47:58;;;;;;;11.95;3.78;;;;;;;;;;5040059;28;20056;-68
2023/05/03 07:50:27;;;;;;;10.65;3.38;;;;;;;;;;5038782;28;20144;-67
2023/05/03 07:52:55;;;;;;;11.65;2.63;;;;;;;;;;5041653;28;20137;-68
2023/05/03 07:55:24;;;;;;;6.53;2.38;;;;;;;;;;5034887;28;20080;-68
2023/05/03 07:57:57;;;;;;;8.93;2.13;;;;;;;;;;5037129;28;20061;-68
2023/05/03 08:00:27;;;;;;;16.27;4.43;;;;;;;;;;5038570;28;20478;-68
2023/05/03 08:02:55;;;;;;;10.38;2.78;;;;;;;;;;5039570;28;20523;-68
2023/05/03 08:05:24;;;;;;;11.45;3.03;;;;;;;;;;5036550;28;20072;-68
2023/05/03 08:07:52;;;;;;;10.70;3.92;;;;;;;;;;5039041;28;20499;-68
2023/05/03 08:10:21;;;;;;;9.63;2.78;;;;;;;;;;5039234;28;20055;-68
2023/05/03 08:12:50;;;;;;;8.50;2.63;;;;;;;;;;5041124;28;20048;-68
2023/05/03 08:15:18;;;;;;;8.48;2.63;;;;;;;;;;5037504;28;20053;-68
2023/05/03 08:17:48;;;;;;;5.38;2.40;;;;;;;;;;5035987;28;20044;-68
2023/05/03 08:20:16;;;;;;;11.63;5.38;;;;;;;;;;5038945;28;20288;-68
2023/05/03 08:22:45;;;;;;;9.00;2.58;;;;;;;;;;5038064;28;20041;-68
2023/05/03 08:25:15;;;;;;;10.10;2.72;;;;;;;;;;5036633;28;20136;-68
2023/05/03 08:27:44;;;;;;;7.07;2.05;;;;;;;;;;5039315;28;20590;-68
2023/05/03 08:30:12;;;;;;;13.80;3.28;;;;;;;;;;5039319;28;20068;-67
2023/05/03 08:32:41;;;;;;;8.68;2.67;;;;;;;;;;5037857;28;20067;-67
2023/05/03 08:35:12;;;;;;;10.27;3.33;;;;;;;;;;5039038;28;20401;-67
2023/05/03 08:37:41;;;;;;;9.45;3.63;;;;;;;;;;5038829;28;20049;-67
2023/05/03 08:40:12;;;;;;;14.20;4.05;;;;;;;;;;5041231;28;20041;-68
2023/05/03 08:42:41;;;;;;;8.93;3.30;;;;;;;;;;5040255;28;20110;-68
2023/05/03 08:45:14;;;;;;;13.05;4.20;;;;;;;;;;5038771;28;20145;-68
2023/05/03 08:47:43;;;;;;;10.55;3.28;;;;;;;;;;5037299;28;20063;-68
2023/05/03 08:50:15;;;;;;;9.45;3.53;;;;;;;;;;5038706;28;20049;-68
2023/05/03 08:52:43;;;;;;;12.65;3.97;;;;;;;;;;5038971;28;20120;-69
2023/05/03 08:55:12;;;;;;;10.25;3.45;;;;;;;;;;5038088;28;20084;-68
2023/05/03 08:57:41;;;;;;;13.45;5.03;;;;;;;;;;5043159;28;20057;-68
2023/05/03 09:00:11;;;;;;;6.50;2.42;;;;;;;;;;5042015;28;20118;-69
2023/05/03 09:02:40;;;;;;;14.15;3.13;;;;;;;;;;5041220;28;20431;-68
2023/05/03 09:05:40;;;;;;;6.35;3.35;;;;;;;;;;5032579;28;20064;-69
2023/05/03 09:08:11;;;;;;;10.82;3.42;;;;;;;;;;4977602;28;20242;-70
2023/05/03 09:10:40;;;;;;;11.75;4.60;;;;;;;;;;5028191;28;20057;-68
2023/05/03 09:13:09;;;;;;;14.15;4.70;;;;;;;;;;5034638;28;20049;-69
2023/05/03 09:15:38;;;;;;;11.90;3.63;;;;;;;;;;5039169;28;20049;-69
2023/05/03 09:18:10;;;;;;;10.23;3.88;;;;;;;;;;5037935;28;20052;-68
2023/05/03 09:20:40;;;;;;;15.05;3.47;;;;;;;;;;5039033;28;20099;-70
2023/05/03 09:23:10;;;;;;;11.77;3.95;;;;;;;;;;5038833;28;20489;-68
2023/05/03 09:25:45;;;;;;;6.90;3.33;;;;;;;;;;5041018;28;20363;-68
2023/05/03 09:28:14;;;;;;;;;;;;;;;;;;5037980;28;20052;-68
2023/05/03 09:30:42;;;;;;;12.55;3.63;;;;;;;;;;5038334;28;20312;-68
2023/05/03 09:33:11;;;;;;;7.47;3.83;;;;;;;;;;5035168;28;20410;-70
2023/05/03 09:35:40;;;;;;;12.57;3.25;;;;;;;;;;5037025;28;20171;-69
2023/05/03 09:38:26;;;;;;;13.65;3.67;;;;;;;;;;5037792;28;20500;-68
2023/05/03 09:40:54;;;;;;;14.55;4.38;;;;;;;;;;5037378;28;20513;-68
2023/05/03 09:43:23;;;;;;;9.40;3.40;;;;;;;;;;5034282;28;20049;-68
2023/05/03 09:45:51;;;;;;;9.43;3.42;;;;;;;;;;5039892;28;20571;-69
2023/05/03 09:48:22;;;;;;;9.30;4.05;;;;;;;;;;5037331;28;20151;-68
2023/05/03 09:50:51;;;;;;;9.80;3.65;;;;;;;;;;5037928;28;20044;-70
2023/05/03 09:53:22;;;;;;;16.35;4.32;;;;;;;;;;5038364;28;20075;-69
2023/05/03 09:55:51;;;;;;;12.23;4.40;;;;;;;;;;5035943;28;20128;-70
2023/05/03 09:58:20;;;;;;;8.10;3.95;;;;;;;;;;5041136;28;20079;-69
2023/05/03 10:00:50;;;;;;;13.52;5.15;;;;;;;;;;5035365;28;20075;-69
2023/05/03 10:03:23;;;;;;;10.20;3.15;;;;;;;;;;5038009;28;20051;-69
2023/05/03 10:05:53;;;;;;;13.77;5.22;;;;;;;;;;5034261;28;20048;-69
2023/05/03 10:08:27;;;;;;;9.73;4.43;;;;;;;;;;5036887;28;20083;-71
2023/05/03 10:10:56;;;;;;;9.52;3.45;;;;;;;;;;5038538;28;20106;-69
2023/05/03 10:13:25;;;;;;;12.90;4.10;;;;;;;;;;5037606;28;20087;-68
2023/05/03 10:15:55;;;;;;;9.57;3.97;;;;;;;;;;5035745;28;20071;-70
2023/05/03 10:18:26;;;;;;;12.23;4.93;;;;;;;;;;5034804;28;20516;-71
2023/05/03 10:20:57;;;;;;;19.85;4.80;;;;;;;;;;5036603;28;21115;-70
2023/05/03 10:23:27;;;;;;;14.40;4.07;;;;;;;;;;5034394;28;20140;-71
2023/05/03 10:26:14;;;;;;;13.68;3.78;;;;;;;;;;5035197;28;20133;-70
2023/05/03 10:28:42;;;;;;;10.77;3.83;;;;;;;;;;5036895;28;20055;-70
2023/05/03 10:31:29;;;;;;;9.60;4.13;;;;;;;;;;5037577;28;20573;-70
2023/05/03 10:33:58;;;;;;;14.55;4.57;;;;;;;;;;5038373;28;20056;-69
2023/05/03 10:36:27;;;;;;;7.22;3.50;;;;;;;;;;5036191;28;20577;-70
2023/05/03 10:39:17;;;;;;;8.63;3.47;;;;;;;;;;5038760;28;20049;-71
2023/05/03 10:41:46;;;;;;;11.65;4.40;;;;;;;;;;5038196;28;20497;-70
2023/05/03 10:44:32;;;;;;;10.77;4.20;;;;;;;;;;5035792;28;20053;-71
2023/05/03 10:47:10;;;;;;;19.17;5.85;;;;;;;;;;5036707;28;20072;-70
2023/05/03 10:49:38;;;;;;;9.18;3.15;;;;;;;;;;5036644;28;20049;-69
2023/05/03 10:52:33;;;;;;;7.60;3.80;;;;;;;;;;5039118;28;20135;-69
2023/05/03 10:55:03;;;;;;;12.33;4.93;;;;;;;;;;5035892;28;20530;-69
2023/05/03 10:57:32;;;;;;;8.82;3.22;;;;;;;;;;5038680;28;20059;-69
2023/05/03 11:00:02;;;;;;;8.50;4.20;;;;;;;;;;5037219;28;20045;-69
2023/05/03 11:02:33;;;;;;;11.05;5.15;;;;;;;;;;5036727;28;20466;-69
2023/05/03 11:05:03;;;;;;;10.40;3.53;;;;;;;;;;5036434;28;20053;-70
2023/05/03 11:07:33;;;;;;;12.80;5.60;;;;;;;;;;5030992;28;20053;-68
2023/05/03 11:10:16;;;;;;;9.02;3.35;;;;;;;;;;5034207;28;20579;-69
2023/05/03 11:12:44;;;;;;;14.48;4.53;;;;;;;;;;5030276;28;20478;-68
2023/05/03 11:15:15;;;;;;;14.52;5.03;;;;;;;;;;5036606;28;20847;-69
2023/05/03 11:17:43;;;;;;;10.63;4.05;;;;;;;;;;5036499;28;20083;-69
2023/05/03 11:20:12;;;;;;;10.07;4.07;;;;;;;;;;5036704;28;20131;-69
2023/05/03 11:22:41;;;;;;;12.43;5.22;;;;;;;;;;5033888;28;20505;-70
2023/05/03 11:25:11;;;;;;;9.00;2.63;;;;;;;;;;5036193;28;20049;-69
2023/05/03 11:27:41;;;;;;;9.80;4.47;;;;;;;;;;5034013;28;20139;-70
2023/05/03 11:30:11;;;;;;;8.82;3.95;;;;;;;;;;5034331;28;20045;-69
2023/05/03 11:32:39;;;;;;;10.52;4.18;;;;;;;;;;5035222;28;20571;-69
2023/05/03 11:35:08;;;;;;;6.15;3.58;;;;;;;;;;5036484;28;20055;-70
2023/05/03 11:37:36;;;;;;;9.50;4.20;;;;;;;;;;5032775;28;20037;-68
2023/05/03 11:40:05;;;;;;;11.40;3.20;;;;;;;;;;5032826;28;20123;-69
2023/05/03 11:42:35;;;;;;;10.93;4.35;;;;;;;;;;5036730;28;20083;-69
2023/05/03 11:45:04;;;;;;;5.53;3.45;;;;;;;;;;5034863;28;20743;-70
2023/05/03 11:47:33;;;;;;;13.18;4.38;;;;;;;;;;5033696;28;20056;-69
2023/05/03 11:50:02;;;;;;;11.48;3.60;;;;;;;;;;5036109;28;20037;-68
2023/05/03 11:52:31;;;;;;;7.30;3.33;;;;;;;;;;5033244;28;20053;-69
2023/05/03 11:55:01;;;;;;;7.07;3.15;;;;;;;;;;5036939;28;20053;-67
2023/05/03 11:57:30;;;;;;;8.13;4.07;;;;;;;;;;5033071;28;20389;-69
2023/05/03 12:00:13;;;;;;;8.10;4.07;;;;;;;;;;5040620;28;20053;-68
2023/05/03 12:02:41;;;;;;;7.70;3.15;;;;;;;;;;5038434;28;20079;-68
2023/05/03 12:05:10;;;;;;;7.55;3.13;;;;;;;;;;5038280;28;20089;-68
2023/05/03 12:07:39;;;;;;;6.78;3.05;;;;;;;;;;5041012;28;20052;-68
2023/05/03 12:10:17;;;;;;;9.00;3.83;;;;;;;;;;5036913;28;20480;-68
2023/05/03 12:12:53;;;;;;;6.47;3.30;;;;;;;;;;5037027;28;20076;-68
2023/05/03 12:15:29;;;;;;;6.50;3.25;;;;;;;;;;5040375;28;20091;-68
2023/05/03 12:18:01;;;;;;;7.68;3.72;;;;;;;;;;5041101;28;20146;-68
2023/05/03 12:20:32;;;;;;;7.95;2.65;;;;;;;;;;5039664;28;20779;-68
2023/05/03 12:23:21;;;;;;;7.28;3.20;;;;;;;;;;5040368;28;20410;-71
2023/05/03 12:25:53;;;;;;;7.47;2.97;;;;;;;;;;5037730;28;20049;-67
2023/05/03 12:28:24;;;;;;;6.28;3.40;;;;;;;;;;5038136;28;20049;-68
2023/05/03 12:30:54;;;;;;;7.82;3.65;;;;;;;;;;5042158;28;20227;-68
2023/05/03 12:33:25;;;;;;;7.40;3.15;;;;;;;;;;5040380;28;20064;-68
2023/05/03 12:35:55;;;;;;;8.10;2.92;;;;;;;;;;5040045;28;20575;-69
2023/05/03 12:38:26;;;;;;;5.00;2.72;;;;;;;;;;5042125;28;20080;-68
2023/05/03 12:40:58;;;;;;;9.15;3.55;;;;;;;;;;5041389;28;20052;-68
2023/05/03 12:43:27;;;;;;;8.10;3.25;;;;;;;;;;5043867;28;20064;-69
2023/05/03 12:45:57;;;;;;;6.40;2.33;;;;;;;;;;5040512;28;20063;-69
2023/05/03 12:48:31;;;;;;;6.18;2.67;;;;;;;;;;5043748;28;20052;-68
2023/05/03 12:51:00;;;;;;;7.75;3.40;;;;;;;;;;5042510;28;20048;-68
2023/05/03 12:53:48;;;;;;;6.97;3.80;;;;;;;;;;5046362;28;20429;-68
2023/05/03 12:56:22;;;;;;;8.82;3.05;;;;;;;;;;5042618;28;20094;-68
2023/05/03 12:58:53;;;;;;;7.13;3.20;;;;;;;;;;5044097;28;20048;-69
2023/05/03 13:01:25;;;;;;;4.72;2.67;;;;;;;;;;5043679;28;20063;-68
2023/05/03 13:03:57;;;;;;;5.43;3.15;;;;;;;;;;5041918;28;20067;-68
2023/05/03 13:06:45;;;;;;;6.70;3.35;;;;;;;;;;5041528;28;20049;-69
2023/05/03 13:09:16;;;;;;;7.40;2.97;;;;;;;;;;5044274;28;20049;-68
2023/05/03 13:11:58;;;;;;;6.13;2.35;;;;;;;;;;5044086;28;20072;-69
2023/05/03 13:14:28;;;;;;;6.85;2.75;;;;;;;;;;5039876;28;20135;-68
2023/05/03 13:16:59;;;;;;;5.90;3.05;;;;;;;;;;5041014;28;20067;-68
2023/05/03 13:19:27;;;;;;;6.10;3.03;;;;;;;;;;5041679;28;20077;-69
2023/05/03 13:21:56;;;;;;;4.75;2.92;;;;;;;;;;5042660;28;20063;-69
2023/05/03 13:24:24;;;;;;;6.82;3.10;;;;;;;;;;5039402;28;20521;-69
2023/05/03 13:26:53;;;;;;;7.97;4.07;;;;;;;;;;5041537;28;21566;-68
2023/05/03 13:29:22;;;;;;;4.75;2.50;;;;;;;;;;5040682;28;20103;-68
2023/05/03 13:31:51;;;;;;;11.10;3.38;;;;;;;;;;5043157;28;20084;-70
2023/05/03 13:34:21;;;;;;;5.60;3.10;;;;;;;;;;5043226;28;20056;-69
2023/05/03 13:36:49;;;;;;;5.95;2.65;;;;;;;;;;5042004;28;20155;-68
2023/05/03 13:39:18;;;;;;;6.57;2.70;;;;;;;;;;5040485;28;20099;-70
2023/05/03 13:41:46;;;;;;;5.45;2.30;;;;;;;;;;5042156;28;20420;-68
2023/05/03 13:44:15;;;;;;;3.92;2.50;;;;;;;;;;5041068;28;20051;-68
2023/05/03 13:46:44;;;;;;;3.40;1.80;;;;;;;;;;5042462;28;20167;-69
2023/05/03 13:49:13;;;;;;;3.60;2.10;;;;;;;;;;5038460;28;20056;-70
2023/05/03 13:51:43;;;;;;;3.95;2.33;;;;;;;;;;5044641;28;20140;-68
2023/05/03 13:54:11;;;;;;;3.88;2.13;;;;;;;;;;5042833;28;20845;-68
2023/05/03 13:56:41;;;;;;;2.53;1.38;;;;;;;;;;5043207;28;20147;-68
2023/05/03 13:59:12;;;;;;;3.30;1.58;;;;;;;;;;5040041;28;20076;-69
2023/05/03 14:01:41;;;;;;;2.30;1.27;;;;;;;;;;5041420;28;20448;-70
2023/05/03 14:04:10;;;;;;;3.65;2.33;;;;;;;;;;5039736;28;20049;-68
2023/05/03 14:06:39;;;;;;;2.45;1.30;;;;;;;;;;5040493;28;20094;-69
2023/05/03 14:09:10;;;;;;;3.38;1.42;;;;;;;;;;5040857;28;20041;-69
2023/05/03 14:11:39;;;;;;;3.88;1.77;;;;;;;;;;5041489;28;20049;-69
2023/05/03 14:14:08;;;;;;;3.67;1.65;;;;;;;;;;5038148;28;20497;-69
2023/05/03 14:16:36;;;;;;;2.42;1.38;;;;;;;;;;5041740;28;20128;-69
2023/05/03 14:19:10;;;;;;;2.00;1.20;;;;;;;;;;5040308;28;20049;-68
2023/05/03 14:21:39;;;;;;;3.92;1.67;;;;;;;;;;5042499;28;20067;-69
2023/05/03 14:24:07;;;;;;;9.85;1.67;;;;;;;;;;5041603;28;20403;-69
2023/05/03 14:26:40;;;;;;;2.80;1.73;;;;;;;;;;5037887;28;20421;-69
2023/05/03 14:29:08;;;;;;;5.43;1.80;;;;;;;;;;5043576;28;20053;-68
2023/05/03 14:31:36;;;;;;;2.47;1.50;;;;;;;;;;5042257;28;20079;-68
2023/05/03 14:34:05;;;;;;;3.05;1.50;;;;;;;;;;5040760;28;20049;-68
2023/05/03 14:36:37;;;;;;;2.33;1.23;;;;;;;;;;5038085;28;20571;-68
2023/05/03 14:39:06;;;;;;;3.90;1.75;;;;;;;;;;5042448;28;20494;-68
2023/05/03 14:41:34;;;;;;;1.52;1.05;;;;;;;;;;5040130;28;20493;-68
2023/05/03 14:44:05;;;;;;;2.85;1.42;;;;;;;;;;5041538;28;20045;-67
2023/05/03 14:46:34;;;;;;;2.35;1.65;;;;;;;;;;5039534;28;20045;-68
2023/05/03 14:49:02;;;;;;;1.00;0.85;;;;;;;;;;5041102;28;20044;-68
2023/05/03 14:51:31;;;;;;;2.60;1.05;;;;;;;;;;5042703;28;20140;-68
2023/05/03 14:54:00;;;;;;;2.13;1.27;;;;;;;;;;5037882;28;20760;-68
2023/05/03 14:56:30;;;;;;;3.15;1.30;;;;;;;;;;5038114;28;20620;-67
2023/05/03 14:58:58;;;;;;;2.05;1.48;;;;;;;;;;5038443;28;20053;-68